sensor_id;sensor_type;location;lat;lon;timestamp;pressure;altitude;pressure_sealevel;temperature;humidity
21276;BME280;36472;52.170;20.884;2023-07-29T00:00:31;99694.81;;;18.56;100.00
21276;BME280;36472;52.170;20.884;2023-07-29T00:03:21;99698.63;;;18.53;100.00
21276;BME280;36472;52.170;20.884;2023-07-29T00:05:50;99699.97;;;18.49;100.00
21276;BME280;36472;52.170;20.884;2023-07-29T00:08:19;99693.84;;;18.48;100.00
21276;BME280;36472;52.170;20.884;2023-07-29T00:10:49;99699.31;;;18.47;100.00
21276;BME280;36472;52.170;20.884;2023-07-29T00:13:17;99705.78;;;18.44;100.00
21276;BME280;36472;52.170;20.884;2023-07-29T00:15:49;99701.66;;;18.42;100.00
21276;BME280;36472;52.170;20.884;2023-07-29T00:18:18;99704.00;;;18.37;100.00
21276;BME280;36472;52.170;20.884;2023-07-29T00:20:48;99708.97;;;18.40;100.00
21276;BME280;36472;52.170;20.884;2023-07-29T00:23:17;99714.97;;;18.42;100.00
21276;BME280;36472;52.170;20.884;2023-07-29T00:25:47;99713.13;;;18.42;100.00
21276;BME280;36472;52.170;20.884;2023-07-29T00:28:16;99714.97;;;18.34;100.00
21276;BME280;36472;52.170;20.884;2023-07-29T00:30:49;99711.66;;;18.31;100.00
21276;BME280;36472;52.170;20.884;2023-07-29T00:33:21;99723.25;;;18.30;100.00
21276;BME280;36472;52.170;20.884;2023-07-29T00:35:52;99714.78;;;18.27;100.00
21276;BME280;36472;52.170;20.884;2023-07-29T00:38:20;99723.44;;;18.29;100.00
21276;BME280;36472;52.170;20.884;2023-07-29T00:40:50;99723.25;;;18.30;100.00
21276;BME280;36472;52.170;20.884;2023-07-29T00:43:19;99721.25;;;18.32;100.00
21276;BME280;36472;52.170;20.884;2023-07-29T00:45:49;99719.47;;;18.33;100.00
21276;BME280;36472;52.170;20.884;2023-07-29T00:48:19;99722.94;;;18.34;100.00
21276;BME280;36472;52.170;20.884;2023-07-29T00:50:51;99723.25;;;18.30;100.00
21276;BME280;36472;52.170;20.884;2023-07-29T00:53:20;99722.94;;;18.34;100.00
21276;BME280;36472;52.170;20.884;2023-07-29T00:55:50;99723.75;;;18.34;100.00
21276;BME280;36472;52.170;20.884;2023-07-29T00:58:19;99718.94;;;18.38;100.00
21276;BME280;36472;52.170;20.884;2023-07-29T01:00:50;99720.94;;;18.36;100.00
21276;BME280;36472;52.170;20.884;2023-07-29T01:03:19;99726.25;;;18.36;100.00
21276;BME280;36472;52.170;20.884;2023-07-29T01:06:08;99726.59;;;18.41;100.00
21276;BME280;36472;52.170;20.884;2023-07-29T01:08:48;99730.91;;;18.42;100.00
21276;BME280;36472;52.170;20.884;2023-07-29T01:11:33;99718.59;;;18.41;100.00
21276;BME280;36472;52.170;20.884;2023-07-29T01:14:16;99724.25;;;18.46;100.00
21276;BME280;36472;52.170;20.884;2023-07-29T01:16:56;99725.94;;;18.47;100.00
21276;BME280;36472;52.170;20.884;2023-07-29T01:19:50;99727.78;;;18.46;100.00
21276;BME280;36472;52.170;20.884;2023-07-29T01:22:26;99726.91;;;18.46;100.00
21276;BME280;36472;52.170;20.884;2023-07-29T01:24:58;99735.06;;;18.44;100.00
21276;BME280;36472;52.170;20.884;2023-07-29T01:27:27;99734.06;;;18.37;100.00
21276;BME280;36472;52.170;20.884;2023-07-29T01:29:57;99740.22;;;18.38;100.00
21276;BME280;36472;52.170;20.884;2023-07-29T01:32:35;99738.41;;;18.38;100.00
21276;BME280;36472;52.170;20.884;2023-07-29T01:35:17;99735.59;;;18.40;100.00
21276;BME280;36472;52.170;20.884;2023-07-29T01:37:55;99743.56;;;18.40;100.00
21276;BME280;36472;52.170;20.884;2023-07-29T01:40:29;99738.56;;;18.37;100.00
21276;BME280;36472;52.170;20.884;2023-07-29T01:42:58;99739.56;;;18.36;100.00
21276;BME280;36472;52.170;20.884;2023-07-29T01:45:28;99746.56;;;18.37;100.00
21276;BME280;36472;52.170;20.884;2023-07-29T01:47:59;99754.53;;;18.28;100.00
21276;BME280;36472;52.170;20.884;2023-07-29T01:50:28;99751.03;;;18.28;100.00
21276;BME280;36472;52.170;20.884;2023-07-29T01:52:57;99759.69;;;18.30;100.00
21276;BME280;36472;52.170;20.884;2023-07-29T01:55:28;99758.66;;;18.31;100.00
21276;BME280;36472;52.170;20.884;2023-07-29T01:57:57;99756.53;;;18.26;100.00
21276;BME280;36472;52.170;20.884;2023-07-29T02:00:27;99752.84;;;18.27;100.00
21276;BME280;36472;52.170;20.884;2023-07-29T02:02:56;99757.34;;;18.19;100.00
21276;BME280;36472;52.170;20.884;2023-07-29T02:05:25;99764.16;;;18.13;100.00
21276;BME280;36472;52.170;20.884;2023-07-29T02:07:54;99766.16;;;18.11;100.00
21276;BME280;36472;52.170;20.884;2023-07-29T02:10:23;99766.47;;;18.08;100.00
21276;BME280;36472;52.170;20.884;2023-07-29T02:12:54;99774.59;;;18.06;100.00
21276;BME280;36472;52.170;20.884;2023-07-29T02:15:23;99779.09;;;18.06;100.00
21276;BME280;36472;52.170;20.884;2023-07-29T02:17:52;99777.75;;;18.02;100.00
21276;BME280;36472;52.170;20.884;2023-07-29T02:20:21;99774.44;;;18.00;100.00
21276;BME280;36472;52.170;20.884;2023-07-29T02:22:51;99776.28;;;17.99;100.00
21276;BME280;36472;52.170;20.884;2023-07-29T02:25:20;99774.44;;;18.00;100.00
21276;BME280;36472;52.170;20.884;2023-07-29T02:27:49;99778.44;;;18.04;100.00
21276;BME280;36472;52.170;20.884;2023-07-29T02:30:21;99777.44;;;18.05;100.00
21276;BME280;36472;52.170;20.884;2023-07-29T02:32:50;99781.59;;;18.07;100.00
21276;BME280;36472;52.170;20.884;2023-07-29T02:35:19;99776.28;;;18.07;100.00
21276;BME280;36472;52.170;20.884;2023-07-29T02:37:48;99775.44;;;18.07;100.00
21276;BME280;36472;52.170;20.884;2023-07-29T02:40:20;99785.75;;;18.10;100.00
21276;BME280;36472;52.170;20.884;2023-07-29T02:42:50;99776.28;;;18.07;100.00
21276;BME280;36472;52.170;20.884;2023-07-29T02:45:21;99783.75;;;18.04;100.00
21276;BME280;36472;52.170;20.884;2023-07-29T02:47:50;99781.44;;;18.09;100.00
21276;BME280;36472;52.170;20.884;2023-07-29T02:50:18;99787.41;;;18.11;100.00
21276;BME280;36472;52.170;20.884;2023-07-29T02:52:47;99793.41;;;18.13;100.00
21276;BME280;36472;52.170;20.884;2023-07-29T02:55:18;99788.09;;;18.13;100.00
21276;BME280;36472;52.170;20.884;2023-07-29T02:57:47;99800.06;;;18.09;100.00
21276;BME280;36472;52.170;20.884;2023-07-29T03:00:16;99800.38;;;18.06;100.00
21276;BME280;36472;52.170;20.884;2023-07-29T03:02:46;99801.19;;;18.06;100.00
21276;BME280;36472;52.170;20.884;2023-07-29T03:05:16;99799.38;;;18.07;100.00
21276;BME280;36472;52.170;20.884;2023-07-29T03:07:46;99805.19;;;18.02;100.00
21276;BME280;36472;52.170;20.884;2023-07-29T03:10:14;99806.34;;;18.00;100.00
21276;BME280;36472;52.170;20.884;2023-07-29T03:12:44;99813.81;;;18.04;100.00
21276;BME280;36472;52.170;20.884;2023-07-29T03:15:13;99812.16;;;18.03;100.00
21276;BME280;36472;52.170;20.884;2023-07-29T03:17:42;99805.34;;;18.01;100.00
21276;BME280;36472;52.170;20.884;2023-07-29T03:20:12;99818.31;;;18.04;100.00
21276;BME280;36472;52.170;20.884;2023-07-29T03:22:41;99812.81;;;17.97;100.00
21276;BME280;36472;52.170;20.884;2023-07-29T03:25:10;99806.16;;;17.93;100.00
21276;BME280;36472;52.170;20.884;2023-07-29T03:27:39;99815.47;;;17.97;100.00
21276;BME280;36472;52.170;20.884;2023-07-29T03:30:09;99813.81;;;17.96;100.00
21276;BME280;36472;52.170;20.884;2023-07-29T03:32:43;99809.16;;;17.98;100.00
21276;BME280;36472;52.170;20.884;2023-07-29T03:35:15;99813.66;;;17.98;100.00
21276;BME280;36472;52.170;20.884;2023-07-29T03:37:44;99813.63;;;17.89;100.00
21276;BME280;36472;52.170;20.884;2023-07-29T03:40:13;99810.22;;;17.79;100.00
21276;BME280;36472;52.170;20.884;2023-07-29T03:42:42;99816.03;;;17.74;100.00
21276;BME280;36472;52.170;20.884;2023-07-29T03:45:11;99819.88;;;17.80;100.00
21276;BME280;36472;52.170;20.884;2023-07-29T03:47:40;99825.88;;;17.82;100.00
21276;BME280;36472;52.170;20.884;2023-07-29T03:50:09;99831.19;;;17.82;100.00
21276;BME280;36472;52.170;20.884;2023-07-29T03:52:40;99827.19;;;17.78;100.00
21276;BME280;36472;52.170;20.884;2023-07-29T03:55:09;99825.88;;;17.82;100.00
21276;BME280;36472;52.170;20.884;2023-07-29T03:57:38;99828.38;;;17.84;100.00
21276;BME280;36472;52.170;20.884;2023-07-29T04:00:07;99836.06;;;17.87;100.00
21276;BME280;36472;52.170;20.884;2023-07-29T04:02:47;99838.31;;;17.82;100.00
21276;BME280;36472;52.170;20.884;2023-07-29T04:05:16;99837.00;;;17.86;100.00
21276;BME280;36472;52.170;20.884;2023-07-29T04:07:47;99837.84;;;17.86;100.00
21276;BME280;36472;52.170;20.884;2023-07-29T04:10:16;99841.03;;;17.90;100.00
21276;BME280;36472;52.170;20.884;2023-07-29T04:12:45;99835.91;;;17.88;100.00
21276;BME280;36472;52.170;20.884;2023-07-29T04:15:14;99845.66;;;17.88;100.00
21276;BME280;36472;52.170;20.884;2023-07-29T04:17:43;99848.16;;;17.89;100.00
21276;BME280;36472;52.170;20.884;2023-07-29T04:20:12;99848.16;;;17.89;100.00
21276;BME280;36472;52.170;20.884;2023-07-29T04:22:41;99846.53;;;17.88;100.00
21276;BME280;36472;52.170;20.884;2023-07-29T04:25:11;99854.84;;;17.93;100.00
21276;BME280;36472;52.170;20.884;2023-07-29T04:27:41;99859.47;;;17.91;100.00
21276;BME280;36472;52.170;20.884;2023-07-29T04:30:10;99863.66;;;17.94;100.00
21276;BME280;36472;52.170;20.884;2023-07-29T04:32:40;99861.00;;;17.94;100.00
21276;BME280;36472;52.170;20.884;2023-07-29T04:35:09;99863.81;;;17.92;100.00
21276;BME280;36472;52.170;20.884;2023-07-29T04:37:38;99881.59;;;17.92;100.00
21276;BME280;36472;52.170;20.884;2023-07-29T04:40:08;99876.47;;;17.99;100.00
21276;BME280;36472;52.170;20.884;2023-07-29T04:42:40;99881.44;;;18.02;100.00
21276;BME280;36472;52.170;20.884;2023-07-29T04:45:09;99888.28;;;18.04;100.00
21276;BME280;36472;52.170;20.884;2023-07-29T04:47:39;99881.63;;;18.08;100.00
21276;BME280;36472;52.170;20.884;2023-07-29T04:50:09;99885.84;;;18.19;100.00
21276;BME280;36472;52.170;20.884;2023-07-29T04:52:38;99885.66;;;18.12;100.00
21276;BME280;36472;52.170;20.884;2023-07-29T04:55:07;99887.44;;;18.12;100.00
21276;BME280;36472;52.170;20.884;2023-07-29T04:57:37;99880.13;;;18.06;100.00
21276;BME280;36472;52.170;20.884;2023-07-29T05:00:08;99877.81;;;18.11;100.00
21276;BME280;36472;52.170;20.884;2023-07-29T05:02:37;99883.16;;;18.11;100.00
21276;BME280;36472;52.170;20.884;2023-07-29T05:05:07;99887.78;;;18.17;100.00
21276;BME280;36472;52.170;20.884;2023-07-29T05:07:37;99890.66;;;18.24;100.00
21276;BME280;36472;52.170;20.884;2023-07-29T05:10:08;99890.31;;;18.27;100.00
21276;BME280;36472;52.170;20.884;2023-07-29T05:12:37;99889.34;;;18.28;100.00
21276;BME280;36472;52.170;20.884;2023-07-29T05:15:09;99885.50;;;18.30;100.00
21276;BME280;36472;52.170;20.884;2023-07-29T05:17:38;99896.81;;;18.32;100.00
21276;BME280;36472;52.170;20.884;2023-07-29T05:20:09;99893.84;;;18.36;100.00
21276;BME280;36472;52.170;20.884;2023-07-29T05:22:38;99894.31;;;18.23;100.00
21276;BME280;36472;52.170;20.884;2023-07-29T05:25:08;99901.44;;;18.22;100.00
21276;BME280;36472;52.170;20.884;2023-07-29T05:27:37;99904.28;;;18.29;100.00
21276;BME280;36472;52.170;20.884;2023-07-29T05:30:08;99900.97;;;18.27;100.00
21276;BME280;36472;52.170;20.884;2023-07-29T05:32:38;99906.13;;;18.28;100.00
21276;BME280;36472;52.170;20.884;2023-07-29T05:35:08;99900.81;;;18.28;100.00
21276;BME280;36472;52.170;20.884;2023-07-29T05:37:38;99912.13;;;18.39;100.00
21276;BME280;36472;52.170;20.884;2023-07-29T05:40:08;99905.16;;;18.46;100.00
21276;BME280;36472;52.170;20.884;2023-07-29T05:42:39;99909.34;;;18.48;100.00
21276;BME280;36472;52.170;20.884;2023-07-29T05:45:10;99905.19;;;18.54;100.00
21276;BME280;36472;52.170;20.884;2023-07-29T05:47:40;99902.84;;;18.59;100.00
21276;BME280;36472;52.170;20.884;2023-07-29T05:50:09;99909.50;;;18.63;100.00
21276;BME280;36472;52.170;20.884;2023-07-29T05:52:39;99913.34;;;18.69;100.00
21276;BME280;36472;52.170;20.884;2023-07-29T05:55:08;99909.84;;;18.68;100.00
21276;BME280;36472;52.170;20.884;2023-07-29T05:57:37;99910.88;;;18.76;100.00
21276;BME280;36472;52.170;20.884;2023-07-29T06:00:12;99926.69;;;18.77;100.00
21276;BME280;36472;52.170;20.884;2023-07-29T06:02:41;99927.66;;;18.76;100.00
21276;BME280;36472;52.170;20.884;2023-07-29T06:05:15;99924.81;;;18.69;100.00
21276;BME280;36472;52.170;20.884;2023-07-29T06:07:44;99933.47;;;18.72;100.00
21276;BME280;36472;52.170;20.884;2023-07-29T06:10:16;99935.66;;;18.76;100.00
21276;BME280;36472;52.170;20.884;2023-07-29T06:12:47;99936.47;;;18.77;100.00
21276;BME280;36472;52.170;20.884;2023-07-29T06:15:18;99937.13;;;18.79;100.00
21276;BME280;36472;52.170;20.884;2023-07-29T06:17:51;99945.13;;;18.79;100.00
21276;BME280;36472;52.170;20.884;2023-07-29T06:20:24;99954.44;;;18.75;100.00
21276;BME280;36472;52.170;20.884;2023-07-29T06:22:53;99949.47;;;18.80;100.00
21276;BME280;36472;52.170;20.884;2023-07-29T06:25:22;99953.16;;;18.87;100.00
21276;BME280;36472;52.170;20.884;2023-07-29T06:27:51;99956.31;;;18.91;100.00
21276;BME280;36472;52.170;20.884;2023-07-29T06:30:21;99958.16;;;18.90;100.00
21276;BME280;36472;52.170;20.884;2023-07-29T06:32:50;99968.66;;;19.00;100.00
21276;BME280;36472;52.170;20.884;2023-07-29T06:35:19;99961.84;;;19.14;100.00
21276;BME280;36472;52.170;20.884;2023-07-29T06:37:49;99963.16;;;19.18;98.77
21276;BME280;36472;52.170;20.884;2023-07-29T06:40:17;99969.50;;;19.17;96.79
21276;BME280;36472;52.170;20.884;2023-07-29T06:42:47;99969.16;;;19.20;97.37
21276;BME280;36472;52.170;20.884;2023-07-29T06:45:16;99971.81;;;19.28;98.42
21276;BME280;36472;52.170;20.884;2023-07-29T06:47:46;99970.66;;;19.22;98.79
21276;BME280;36472;52.170;20.884;2023-07-29T06:50:15;99973.31;;;19.31;97.46
21276;BME280;36472;52.170;20.884;2023-07-29T06:52:45;99968.31;;;19.36;97.17
21276;BME280;36472;52.170;20.884;2023-07-29T06:55:14;99971.97;;;19.43;96.87
21276;BME280;36472;52.170;20.884;2023-07-29T06:57:43;99968.81;;;19.39;97.20
21276;BME280;36472;52.170;20.884;2023-07-29T07:00:12;99966.47;;;19.53;98.48
21276;BME280;36472;52.170;20.884;2023-07-29T07:02:41;99969.47;;;19.58;97.72
21276;BME280;36472;52.170;20.884;2023-07-29T07:05:12;99964.28;;;19.65;98.00
21276;BME280;36472;52.170;20.884;2023-07-29T07:07:41;99965.09;;;19.73;99.42
21276;BME280;36472;52.170;20.884;2023-07-29T07:10:10;99965.13;;;19.82;96.86
21276;BME280;36472;52.170;20.884;2023-07-29T07:12:39;99963.13;;;19.75;95.89
21276;BME280;36472;52.170;20.884;2023-07-29T07:15:08;99956.81;;;19.76;96.03
21276;BME280;36472;52.170;20.884;2023-07-29T07:17:37;99961.25;;;19.84;95.75
21276;BME280;36472;52.170;20.884;2023-07-29T07:20:07;99953.06;;;19.94;92.53
21276;BME280;36472;52.170;20.884;2023-07-29T07:22:38;99950.06;;;19.97;91.25
21276;BME280;36472;52.170;20.884;2023-07-29T07:25:08;99950.00;;;20.13;91.23
21276;BME280;36472;52.170;20.884;2023-07-29T07:27:37;99949.72;;;20.40;90.55
21276;BME280;36472;52.170;20.884;2023-07-29T07:30:07;99959.63;;;20.85;89.44
21276;BME280;36472;52.170;20.884;2023-07-29T07:32:36;99955.97;;;21.09;85.00
21276;BME280;36472;52.170;20.884;2023-07-29T07:35:06;99961.47;;;21.08;84.43
21276;BME280;36472;52.170;20.884;2023-07-29T07:37:35;99960.59;;;20.92;81.94
21276;BME280;36472;52.170;20.884;2023-07-29T07:40:06;99961.09;;;20.65;84.90
21276;BME280;36472;52.170;20.884;2023-07-29T07:42:36;99957.03;;;20.77;86.82
21276;BME280;36472;52.170;20.884;2023-07-29T07:45:05;99964.44;;;20.90;86.44
21276;BME280;36472;52.170;20.884;2023-07-29T07:47:35;99961.88;;;20.97;84.53
21276;BME280;36472;52.170;20.884;2023-07-29T07:50:04;99962.25;;;21.17;86.21
21276;BME280;36472;52.170;20.884;2023-07-29T07:52:33;99956.03;;;21.39;85.36
21276;BME280;36472;52.170;20.884;2023-07-29T07:55:03;99948.25;;;21.53;81.06
21276;BME280;36472;52.170;20.884;2023-07-29T07:57:33;99952.66;;;21.60;81.21
21276;BME280;36472;52.170;20.884;2023-07-29T08:00:03;99952.41;;;21.85;81.77
21276;BME280;36472;52.170;20.884;2023-07-29T08:02:39;99953.59;;;21.97;78.99
21276;BME280;36472;52.170;20.884;2023-07-29T08:05:08;99957.72;;;22.00;77.93
21276;BME280;36472;52.170;20.884;2023-07-29T08:07:37;99953.06;;;22.02;79.95
21276;BME280;36472;52.170;20.884;2023-07-29T08:10:07;99948.06;;;21.84;76.13
21276;BME280;36472;52.170;20.884;2023-07-29T08:12:38;99957.94;;;21.98;76.95
21276;BME280;36472;52.170;20.884;2023-07-29T08:15:07;99952.09;;;22.10;77.14
21276;BME280;36472;52.170;20.884;2023-07-29T08:17:36;99955.97;;;22.22;76.63
21276;BME280;36472;52.170;20.884;2023-07-29T08:20:06;99955.13;;;22.51;75.89
21276;BME280;36472;52.170;20.884;2023-07-29T08:22:35;99946.13;;;22.59;74.70
21276;BME280;36472;52.170;20.884;2023-07-29T08:25:05;99949.22;;;22.77;75.63
21276;BME280;36472;52.170;20.884;2023-07-29T08:27:34;99951.78;;;22.86;70.73
21276;BME280;36472;52.170;20.884;2023-07-29T08:30:07;99947.72;;;22.75;69.07
21276;BME280;36472;52.170;20.884;2023-07-29T08:32:36;99946.72;;;22.76;71.21
21276;BME280;36472;52.170;20.884;2023-07-29T08:35:06;99943.06;;;23.05;71.55
21276;BME280;36472;52.170;20.884;2023-07-29T08:37:35;99933.94;;;23.14;69.79
21276;BME280;36472;52.170;20.884;2023-07-29T08:40:05;99939.13;;;23.01;70.81
21276;BME280;36472;52.170;20.884;2023-07-29T08:42:36;99937.84;;;22.97;72.31
21276;BME280;36472;52.170;20.884;2023-07-29T08:45:08;99941.16;;;22.99;66.64
21276;BME280;36472;52.170;20.884;2023-07-29T08:47:39;99936.34;;;23.09;65.04
21276;BME280;36472;52.170;20.884;2023-07-29T08:50:09;99936.94;;;23.33;66.88
21276;BME280;36472;52.170;20.884;2023-07-29T08:52:42;99936.09;;;23.32;69.12
21276;BME280;36472;52.170;20.884;2023-07-29T08:55:12;99941.13;;;23.42;67.44
21276;BME280;36472;52.170;20.884;2023-07-29T08:57:41;99933.44;;;23.32;66.21
21276;BME280;36472;52.170;20.884;2023-07-29T09:00:13;99939.91;;;23.45;66.08
21276;BME280;36472;52.170;20.884;2023-07-29T09:02:46;99928.47;;;23.58;63.17
21276;BME280;36472;52.170;20.884;2023-07-29T09:05:16;99924.44;;;23.75;61.05
21276;BME280;36472;52.170;20.884;2023-07-29T09:07:47;99924.53;;;23.88;59.08
21276;BME280;36472;52.170;20.884;2023-07-29T09:10:16;99930.53;;;23.90;61.09
21276;BME280;36472;52.170;20.884;2023-07-29T09:12:45;99920.41;;;23.93;59.55
21276;BME280;36472;52.170;20.884;2023-07-29T09:15:27;99919.63;;;23.99;60.95
21276;BME280;36472;52.170;20.884;2023-07-29T09:17:58;99920.69;;;24.11;61.88
21276;BME280;36472;52.170;20.884;2023-07-29T09:20:29;99920.56;;;24.26;58.47
21276;BME280;36472;52.170;20.884;2023-07-29T09:22:59;99918.31;;;24.36;59.67
21276;BME280;36472;52.170;20.884;2023-07-29T09:25:29;99925.16;;;24.45;58.00
21276;BME280;36472;52.170;20.884;2023-07-29T09:27:59;99920.66;;;24.59;56.29
21276;BME280;36472;52.170;20.884;2023-07-29T09:30:30;99917.00;;;24.80;60.41
21276;BME280;36472;52.170;20.884;2023-07-29T09:32:59;99922.81;;;24.97;59.33
21276;BME280;36472;52.170;20.884;2023-07-29T09:35:32;99917.19;;;25.19;58.52
21276;BME280;36472;52.170;20.884;2023-07-29T09:38:01;99924.25;;;25.20;56.22
21276;BME280;36472;52.170;20.884;2023-07-29T09:40:35;99911.41;;;25.15;56.95
21276;BME280;36472;52.170;20.884;2023-07-29T09:43:06;99917.00;;;25.34;55.67
21276;BME280;36472;52.170;20.884;2023-07-29T09:45:37;99912.03;;;25.51;55.01
21276;BME280;36472;52.170;20.884;2023-07-29T09:48:08;99911.31;;;25.75;55.40
21276;BME280;36472;52.170;20.884;2023-07-29T09:50:38;99920.88;;;25.65;52.75
21276;BME280;36472;52.170;20.884;2023-07-29T09:53:07;99912.84;;;25.51;54.53
21276;BME280;36472;52.170;20.884;2023-07-29T09:55:36;99914.84;;;25.83;54.11
21276;BME280;36472;52.170;20.884;2023-07-29T09:58:05;99898.22;;;26.06;52.58
21276;BME280;36472;52.170;20.884;2023-07-29T10:00:37;99894.50;;;26.07;52.10
21276;BME280;36472;52.170;20.884;2023-07-29T10:03:06;99892.00;;;26.05;50.43
21276;BME280;36472;52.170;20.884;2023-07-29T10:05:36;99897.19;;;26.07;50.77
21276;BME280;36472;52.170;20.884;2023-07-29T10:08:07;99892.28;;;26.36;52.63
21276;BME280;36472;52.170;20.884;2023-07-29T10:10:36;99888.78;;;26.60;52.50
21276;BME280;36472;52.170;20.884;2023-07-29T10:13:07;99899.97;;;26.96;48.56
21276;BME280;36472;52.170;20.884;2023-07-29T10:15:37;99898.47;;;27.00;48.26
21276;BME280;36472;52.170;20.884;2023-07-29T10:18:07;99902.16;;;27.05;48.15
21276;BME280;36472;52.170;20.884;2023-07-29T10:20:36;99897.75;;;27.36;49.88
21276;BME280;36472;52.170;20.884;2023-07-29T10:23:08;99900.84;;;27.77;46.18
21276;BME280;36472;52.170;20.884;2023-07-29T10:25:46;99889.81;;;27.78;46.32
21276;BME280;36472;52.170;20.884;2023-07-29T10:28:17;99892.44;;;28.22;46.93
21276;BME280;36472;52.170;20.884;2023-07-29T10:30:51;99884.75;;;28.38;43.53
21276;BME280;36472;52.170;20.884;2023-07-29T10:33:20;99894.59;;;28.44;44.89
21276;BME280;36472;52.170;20.884;2023-07-29T10:35:50;99896.84;;;28.77;43.82
21276;BME280;36472;52.170;20.884;2023-07-29T10:38:22;99893.72;;;28.92;42.08
21276;BME280;36472;52.170;20.884;2023-07-29T10:40:54;99881.94;;;29.10;42.46
21276;BME280;36472;52.170;20.884;2023-07-29T10:43:26;99881.16;;;29.45;40.57
21276;BME280;36472;52.170;20.884;2023-07-29T10:45:57;99873.84;;;29.45;41.29
21276;BME280;36472;52.170;20.884;2023-07-29T10:48:52;99875.53;;;29.87;43.82
21276;BME280;36472;52.170;20.884;2023-07-29T10:51:26;99874.34;;;29.95;39.99
21276;BME280;36472;52.170;20.884;2023-07-29T10:54:00;99872.88;;;30.04;40.94
21276;BME280;36472;52.170;20.884;2023-07-29T10:56:31;99875.16;;;29.95;40.75
21276;BME280;36472;52.170;20.884;2023-07-29T10:59:32;99876.69;;;30.03;41.59
21276;BME280;36472;52.170;20.884;2023-07-29T11:02:15;99877.09;;;29.83;41.20
21276;BME280;36472;52.170;20.884;2023-07-29T11:04:47;99881.97;;;29.22;41.41
21276;BME280;36472;52.170;20.884;2023-07-29T11:07:24;99879.25;;;29.45;41.63
21276;BME280;36472;52.170;20.884;2023-07-29T11:10:01;99865.75;;;29.22;40.49
21276;BME280;36472;52.170;20.884;2023-07-29T11:12:50;99864.63;;;28.76;43.49
21276;BME280;36472;52.170;20.884;2023-07-29T11:15:22;99869.22;;;28.75;42.80
21276;BME280;36472;52.170;20.884;2023-07-29T11:17:54;99859.66;;;28.61;42.62
21276;BME280;36472;52.170;20.884;2023-07-29T11:20:26;99858.78;;;28.48;44.58
21276;BME280;36472;52.170;20.884;2023-07-29T11:22:57;99851.56;;;28.72;43.23
21276;BME280;36472;52.170;20.884;2023-07-29T11:25:29;99845.72;;;28.87;43.22
21276;BME280;36472;52.170;20.884;2023-07-29T11:27:59;99839.84;;;29.02;41.81
21276;BME280;36472;52.170;20.884;2023-07-29T11:30:33;99836.56;;;29.24;41.89
21276;BME280;36472;52.170;20.884;2023-07-29T11:33:04;99835.25;;;29.50;43.62
21276;BME280;36472;52.170;20.884;2023-07-29T11:35:33;99825.75;;;29.88;41.41
21276;BME280;36472;52.170;20.884;2023-07-29T11:38:02;99836.63;;;30.05;40.16
21276;BME280;36472;52.170;20.884;2023-07-29T11:40:31;99827.84;;;29.98;39.91
21276;BME280;36472;52.170;20.884;2023-07-29T11:43:00;99821.28;;;29.70;40.63
21276;BME280;36472;52.170;20.884;2023-07-29T11:45:29;99826.59;;;29.65;41.51
21276;BME280;36472;52.170;20.884;2023-07-29T11:48:14;99824.97;;;29.64;41.30
21276;BME280;36472;52.170;20.884;2023-07-29T11:50:45;99814.09;;;29.35;40.04
21276;BME280;36472;52.170;20.884;2023-07-29T11:53:14;99818.47;;;29.65;39.40
21276;BME280;36472;52.170;20.884;2023-07-29T11:55:44;99819.50;;;29.23;40.41
21276;BME280;36472;52.170;20.884;2023-07-29T11:58:13;99808.34;;;29.20;40.50
21276;BME280;36472;52.170;20.884;2023-07-29T12:00:44;99814.22;;;28.93;41.96
21276;BME280;36472;52.170;20.884;2023-07-29T12:03:16;99801.53;;;28.82;40.91
21276;BME280;36472;52.170;20.884;2023-07-29T12:05:46;99804.09;;;28.65;42.17
21276;BME280;36472;52.170;20.884;2023-07-29T12:08:16;99802.44;;;28.64;41.37
21276;BME280;36472;52.170;20.884;2023-07-29T12:10:46;99796.91;;;28.59;42.93
21276;BME280;36472;52.170;20.884;2023-07-29T12:13:15;99800.28;;;28.54;42.49
21276;BME280;36472;52.170;20.884;2023-07-29T12:15:44;99796.63;;;28.48;42.94
21276;BME280;36472;52.170;20.884;2023-07-29T12:18:15;99788.84;;;28.28;42.52
21276;BME280;36472;52.170;20.884;2023-07-29T12:20:44;99777.97;;;28.05;43.47
21276;BME280;36472;52.170;20.884;2023-07-29T12:23:13;99780.84;;;27.91;45.59
21276;BME280;36472;52.170;20.884;2023-07-29T12:25:42;99773.09;;;27.65;43.35
21276;BME280;36472;52.170;20.884;2023-07-29T12:28:12;99775.66;;;27.59;43.97
21276;BME280;36472;52.170;20.884;2023-07-29T12:30:42;99768.38;;;27.60;44.41
21276;BME280;36472;52.170;20.884;2023-07-29T12:33:11;99766.38;;;27.55;45.31
21276;BME280;36472;52.170;20.884;2023-07-29T12:35:41;99766.75;;;27.59;46.82
21276;BME280;36472;52.170;20.884;2023-07-29T12:38:10;99769.91;;;27.56;45.23
21276;BME280;36472;52.170;20.884;2023-07-29T12:40:39;99766.56;;;27.42;46.37
21276;BME280;36472;52.170;20.884;2023-07-29T12:43:09;99769.22;;;27.60;45.26
21276;BME280;36472;52.170;20.884;2023-07-29T12:45:38;99773.63;;;27.55;45.54
21276;BME280;36472;52.170;20.884;2023-07-29T12:48:09;99771.44;;;27.64;44.90
21276;BME280;36472;52.170;20.884;2023-07-29T12:50:38;99761.94;;;27.61;44.94
21276;BME280;36472;52.170;20.884;2023-07-29T12:53:09;99763.34;;;27.64;43.84
21276;BME280;36472;52.170;20.884;2023-07-29T12:55:38;99768.31;;;27.48;44.26
21276;BME280;36472;52.170;20.884;2023-07-29T12:58:07;99756.56;;;27.42;44.62
21276;BME280;36472;52.170;20.884;2023-07-29T13:00:36;99752.91;;;27.55;45.25
21276;BME280;36472;52.170;20.884;2023-07-29T13:03:06;99753.47;;;27.57;45.34